sensor_id;sensor_type;location;lat;lon;timestamp;P1;durP1;ratioP1;P2;durP2;ratioP2
39502;SDS011;26970;49.900;10.774;2022-09-09T00:01:43;4.97;;;2.03;;
39502;SDS011;26970;49.900;10.774;2022-09-09T00:04:13;6.15;;;1.98;;
39502;SDS011;26970;49.900;10.774;2022-09-09T00:07:06;4.65;;;1.98;;
39502;SDS011;26970;49.900;10.774;2022-09-09T00:10:13;5.35;;;1.90;;
39502;SDS011;26970;49.900;10.774;2022-09-09T00:13:09;5.72;;;2.03;;
39502;SDS011;26970;49.900;10.774;2022-09-09T00:15:54;4.43;;;1.65;;
39502;SDS011;26970;49.900;10.774;2022-09-09T00:21:04;5.25;;;2.05;;
39502;SDS011;26970;49.900;10.774;2022-09-09T00:23:37;3.97;;;1.80;;
39502;SDS011;26970;49.900;10.774;2022-09-09T00:28:35;6.13;;;2.75;;
39502;SDS011;26970;49.900;10.774;2022-09-09T00:31:11;9.70;;;5.07;;
39502;SDS011;26970;49.900;10.774;2022-09-09T00:33:39;7.63;;;3.88;;
39502;SDS011;26970;49.900;10.774;2022-09-09T00:36:09;6.30;;;2.97;;
39502;SDS011;26970;49.900;10.774;2022-09-09T00:38:42;6.85;;;3.00;;
39502;SDS011;26970;49.900;10.774;2022-09-09T00:42:14;9.52;;;2.90;;
39502;SDS011;26970;49.900;10.774;2022-09-09T00:44:33;5.82;;;2.60;;
39502;SDS011;26970;49.900;10.774;2022-09-09T00:50:08;7.32;;;2.90;;
39502;SDS011;26970;49.900;10.774;2022-09-09T00:55:27;6.72;;;2.53;;
39502;SDS011;26970;49.900;10.774;2022-09-09T00:58:07;6.57;;;2.30;;
39502;SDS011;26970;49.900;10.774;2022-09-09T01:00:40;6.25;;;2.40;;
39502;SDS011;26970;49.900;10.774;2022-09-09T01:03:34;4.65;;;2.10;;
39502;SDS011;26970;49.900;10.774;2022-09-09T01:08:59;4.88;;;1.90;;
39502;SDS011;26970;49.900;10.774;2022-09-09T01:17:20;8.57;;;2.47;;
39502;SDS011;26970;49.900;10.774;2022-09-09T01:20:02;2.67;;;1.88;;
39502;SDS011;26970;49.900;10.774;2022-09-09T01:28:21;7.20;;;2.50;;
39502;SDS011;26970;49.900;10.774;2022-09-09T01:30:51;7.82;;;2.58;;
39502;SDS011;26970;49.900;10.774;2022-09-09T01:33:18;6.78;;;2.45;;
39502;SDS011;26970;49.900;10.774;2022-09-09T01:35:57;8.60;;;2.38;;
39502;SDS011;26970;49.900;10.774;2022-09-09T01:38:25;5.30;;;2.35;;
39502;SDS011;26970;49.900;10.774;2022-09-09T01:40:52;7.90;;;2.60;;
39502;SDS011;26970;49.900;10.774;2022-09-09T01:43:21;6.65;;;2.80;;
39502;SDS011;26970;49.900;10.774;2022-09-09T01:45:49;8.77;;;3.20;;
39502;SDS011;26970;49.900;10.774;2022-09-09T01:48:20;8.75;;;4.07;;
39502;SDS011;26970;49.900;10.774;2022-09-09T01:50:48;11.13;;;3.95;;
39502;SDS011;26970;49.900;10.774;2022-09-09T01:53:14;7.50;;;3.78;;
39502;SDS011;26970;49.900;10.774;2022-09-09T01:55:42;6.25;;;3.08;;
39502;SDS011;26970;49.900;10.774;2022-09-09T02:01:40;5.68;;;2.40;;
39502;SDS011;26970;49.900;10.774;2022-09-09T02:07:03;12.35;;;2.45;;
39502;SDS011;26970;49.900;10.774;2022-09-09T02:09:39;5.15;;;2.40;;
39502;SDS011;26970;49.900;10.774;2022-09-09T02:12:11;5.25;;;2.50;;
39502;SDS011;26970;49.900;10.774;2022-09-09T02:14:43;6.47;;;2.45;;
39502;SDS011;26970;49.900;10.774;2022-09-09T02:17:15;5.22;;;2.22;;
39502;SDS011;26970;49.900;10.774;2022-09-09T02:19:47;5.07;;;2.70;;
39502;SDS011;26970;49.900;10.774;2022-09-09T02:22:17;6.60;;;2.70;;
39502;SDS011;26970;49.900;10.774;2022-09-09T02:24:45;6.43;;;2.20;;
39502;SDS011;26970;49.900;10.774;2022-09-09T02:27:12;6.57;;;2.55;;
39502;SDS011;26970;49.900;10.774;2022-09-09T02:29:40;7.35;;;2.60;;
39502;SDS011;26970;49.900;10.774;2022-09-09T02:32:11;9.85;;;2.90;;
39502;SDS011;26970;49.900;10.774;2022-09-09T02:34:43;5.80;;;2.65;;
39502;SDS011;26970;49.900;10.774;2022-09-09T02:37:12;5.72;;;2.67;;
39502;SDS011;26970;49.900;10.774;2022-09-09T02:39:42;8.55;;;3.60;;
39502;SDS011;26970;49.900;10.774;2022-09-09T02:42:07;7.18;;;2.63;;
39502;SDS011;26970;49.900;10.774;2022-09-09T02:44:33;5.68;;;2.40;;
39502;SDS011;26970;49.900;10.774;2022-09-09T02:55:30;5.25;;;2.53;;
39502;SDS011;26970;49.900;10.774;2022-09-09T02:58:13;5.03;;;2.30;;
39502;SDS011;26970;49.900;10.774;2022-09-09T03:00:49;5.55;;;2.42;;
39502;SDS011;26970;49.900;10.774;2022-09-09T03:03:16;6.65;;;2.40;;
39502;SDS011;26970;49.900;10.774;2022-09-09T03:05:43;7.10;;;2.60;;
39502;SDS011;26970;49.900;10.774;2022-09-09T03:08:09;6.22;;;2.72;;
39502;SDS011;26970;49.900;10.774;2022-09-09T03:10:35;7.97;;;2.72;;
39502;SDS011;26970;49.900;10.774;2022-09-09T03:13:02;5.38;;;2.50;;
39502;SDS011;26970;49.900;10.774;2022-09-09T03:15:29;5.90;;;2.78;;
39502;SDS011;26970;49.900;10.774;2022-09-09T03:17:56;6.40;;;2.60;;
39502;SDS011;26970;49.900;10.774;2022-09-09T03:20:23;5.57;;;2.65;;
39502;SDS011;26970;49.900;10.774;2022-09-09T03:22:52;7.32;;;2.42;;
39502;SDS011;26970;49.900;10.774;2022-09-09T03:25:19;5.95;;;2.50;;
39502;SDS011;26970;49.900;10.774;2022-09-09T03:27:45;4.15;;;2.40;;
39502;SDS011;26970;49.900;10.774;2022-09-09T03:30:10;4.07;;;2.50;;
39502;SDS011;26970;49.900;10.774;2022-09-09T03:32:36;5.63;;;2.63;;
39502;SDS011;26970;49.900;10.774;2022-09-09T03:35:02;6.15;;;3.10;;
39502;SDS011;26970;49.900;10.774;2022-09-09T03:37:28;4.30;;;2.58;;
39502;SDS011;26970;49.900;10.774;2022-09-09T03:39:53;4.90;;;2.65;;
39502;SDS011;26970;49.900;10.774;2022-09-09T03:42:19;5.63;;;2.60;;
39502;SDS011;26970;49.900;10.774;2022-09-09T03:44:46;6.45;;;2.75;;
39502;SDS011;26970;49.900;10.774;2022-09-09T03:47:14;6.95;;;2.60;;
39502;SDS011;26970;49.900;10.774;2022-09-09T03:49:43;6.82;;;2.50;;
39502;SDS011;26970;49.900;10.774;2022-09-09T03:52:10;7.80;;;2.90;;
39502;SDS011;26970;49.900;10.774;2022-09-09T03:54:35;5.60;;;2.58;;
39502;SDS011;26970;49.900;10.774;2022-09-09T03:57:01;8.00;;;2.85;;
39502;SDS011;26970;49.900;10.774;2022-09-09T03:59:27;5.90;;;2.42;;
39502;SDS011;26970;49.900;10.774;2022-09-09T04:01:53;5.55;;;2.70;;
39502;SDS011;26970;49.900;10.774;2022-09-09T04:04:19;7.82;;;3.15;;
39502;SDS011;26970;49.900;10.774;2022-09-09T04:06:45;7.15;;;3.10;;
39502;SDS011;26970;49.900;10.774;2022-09-09T04:09:13;8.20;;;2.63;;
39502;SDS011;26970;49.900;10.774;2022-09-09T04:11:38;4.53;;;2.65;;
39502;SDS011;26970;49.900;10.774;2022-09-09T04:14:04;6.95;;;2.47;;
39502;SDS011;26970;49.900;10.774;2022-09-09T04:16:31;6.60;;;2.70;;
39502;SDS011;26970;49.900;10.774;2022-09-09T04:18:57;5.63;;;2.65;;
39502;SDS011;26970;49.900;10.774;2022-09-09T04:21:24;4.75;;;2.50;;
39502;SDS011;26970;49.900;10.774;2022-09-09T04:23:50;7.35;;;2.45;;
39502;SDS011;26970;49.900;10.774;2022-09-09T04:26:16;13.15;;;3.30;;
39502;SDS011;26970;49.900;10.774;2022-09-09T04:28:42;7.65;;;2.95;;
39502;SDS011;26970;49.900;10.774;2022-09-09T04:31:09;7.18;;;3.13;;
39502;SDS011;26970;49.900;10.774;2022-09-09T04:33:39;7.93;;;3.13;;
39502;SDS011;26970;49.900;10.774;2022-09-09T04:36:05;7.03;;;3.00;;
39502;SDS011;26970;49.900;10.774;2022-09-09T04:38:31;8.38;;;2.95;;
39502;SDS011;26970;49.900;10.774;2022-09-09T04:40:57;6.38;;;2.65;;
39502;SDS011;26970;49.900;10.774;2022-09-09T04:43:22;8.07;;;2.55;;
39502;SDS011;26970;49.900;10.774;2022-09-09T04:45:50;7.63;;;2.80;;
39502;SDS011;26970;49.900;10.774;2022-09-09T04:48:16;10.15;;;2.45;;
39502;SDS011;26970;49.900;10.774;2022-09-09T04:50:42;6.55;;;2.75;;
39502;SDS011;26970;49.900;10.774;2022-09-09T04:53:07;4.75;;;2.83;;
39502;SDS011;26970;49.900;10.774;2022-09-09T04:55:34;6.82;;;2.80;;
39502;SDS011;26970;49.900;10.774;2022-09-09T04:58:07;5.85;;;2.95;;
39502;SDS011;26970;49.900;10.774;2022-09-09T05:00:34;4.50;;;2.50;;
39502;SDS011;26970;49.900;10.774;2022-09-09T05:03:04;9.70;;;2.65;;
39502;SDS011;26970;49.900;10.774;2022-09-09T05:05:30;6.18;;;2.80;;
39502;SDS011;26970;49.900;10.774;2022-09-09T05:08:03;6.00;;;2.92;;
39502;SDS011;26970;49.900;10.774;2022-09-09T05:10:30;8.35;;;2.83;;
39502;SDS011;26970;49.900;10.774;2022-09-09T05:12:55;6.22;;;2.72;;
39502;SDS011;26970;49.900;10.774;2022-09-09T05:15:21;7.03;;;3.17;;
39502;SDS011;26970;49.900;10.774;2022-09-09T05:17:47;6.28;;;2.70;;
39502;SDS011;26970;49.900;10.774;2022-09-09T05:20:12;4.85;;;2.60;;
39502;SDS011;26970;49.900;10.774;2022-09-09T05:22:38;8.88;;;3.47;;
39502;SDS011;26970;49.900;10.774;2022-09-09T05:25:04;5.07;;;2.72;;
39502;SDS011;26970;49.900;10.774;2022-09-09T05:27:29;6.55;;;2.90;;
39502;SDS011;26970;49.900;10.774;2022-09-09T05:29:58;10.13;;;2.85;;
39502;SDS011;26970;49.900;10.774;2022-09-09T05:32:23;5.72;;;2.75;;
39502;SDS011;26970;49.900;10.774;2022-09-09T05:34:49;7.40;;;3.00;;
39502;SDS011;26970;49.900;10.774;2022-09-09T05:37:14;5.47;;;2.45;;
39502;SDS011;26970;49.900;10.774;2022-09-09T05:39:41;6.95;;;2.60;;
39502;SDS011;26970;49.900;10.774;2022-09-09T05:42:07;5.45;;;2.83;;
39502;SDS011;26970;49.900;10.774;2022-09-09T05:44:32;5.95;;;2.85;;
39502;SDS011;26970;49.900;10.774;2022-09-09T05:46:58;7.93;;;2.92;;
39502;SDS011;26970;49.900;10.774;2022-09-09T05:49:24;7.35;;;3.00;;
39502;SDS011;26970;49.900;10.774;2022-09-09T05:51:49;6.60;;;2.70;;
39502;SDS011;26970;49.900;10.774;2022-09-09T05:54:15;4.95;;;2.20;;
39502;SDS011;26970;49.900;10.774;2022-09-09T05:56:41;5.57;;;2.90;;
39502;SDS011;26970;49.900;10.774;2022-09-09T05:59:07;6.80;;;2.80;;
39502;SDS011;26970;49.900;10.774;2022-09-09T06:01:34;8.98;;;2.67;;
39502;SDS011;26970;49.900;10.774;2022-09-09T06:04:01;9.20;;;3.10;;
39502;SDS011;26970;49.900;10.774;2022-09-09T06:06:30;4.90;;;2.63;;
39502;SDS011;26970;49.900;10.774;2022-09-09T06:09:02;7.13;;;2.70;;
39502;SDS011;26970;49.900;10.774;2022-09-09T06:11:31;4.75;;;2.65;;
39502;SDS011;26970;49.900;10.774;2022-09-09T06:13:58;6.68;;;2.63;;
39502;SDS011;26970;49.900;10.774;2022-09-09T06:16:25;5.70;;;2.50;;
39502;SDS011;26970;49.900;10.774;2022-09-09T06:18:52;5.85;;;2.75;;
39502;SDS011;26970;49.900;10.774;2022-09-09T06:21:26;5.80;;;2.30;;
39502;SDS011;26970;49.900;10.774;2022-09-09T06:23:53;5.32;;;2.45;;
39502;SDS011;26970;49.900;10.774;2022-09-09T06:28:49;6.85;;;2.72;;
39502;SDS011;26970;49.900;10.774;2022-09-09T06:31:18;3.78;;;1.92;;
39502;SDS011;26970;49.900;10.774;2022-09-09T06:33:52;5.72;;;3.00;;
39502;SDS011;26970;49.900;10.774;2022-09-09T06:36:20;5.65;;;2.17;;
39502;SDS011;26970;49.900;10.774;2022-09-09T06:38:48;6.43;;;2.30;;
39502;SDS011;26970;49.900;10.774;2022-09-09T06:41:14;4.97;;;2.22;;
39502;SDS011;26970;49.900;10.774;2022-09-09T06:43:41;7.35;;;2.30;;
39502;SDS011;26970;49.900;10.774;2022-09-09T06:46:12;8.75;;;2.40;;
39502;SDS011;26970;49.900;10.774;2022-09-09T06:48:46;10.73;;;2.20;;
39502;SDS011;26970;49.900;10.774;2022-09-09T06:51:16;8.98;;;2.42;;
39502;SDS011;26970;49.900;10.774;2022-09-09T06:53:43;4.28;;;2.40;;
39502;SDS011;26970;49.900;10.774;2022-09-09T06:58:36;4.95;;;2.28;;
39502;SDS011;26970;49.900;10.774;2022-09-09T07:01:07;5.50;;;2.08;;
39502;SDS011;26970;49.900;10.774;2022-09-09T07:03:33;6.63;;;2.10;;
39502;SDS011;26970;49.900;10.774;2022-09-09T07:06:00;10.05;;;2.35;;
39502;SDS011;26970;49.900;10.774;2022-09-09T07:08:26;5.78;;;2.10;;
39502;SDS011;26970;49.900;10.774;2022-09-09T07:10:52;4.43;;;2.00;;
39502;SDS011;26970;49.900;10.774;2022-09-09T07:13:19;7.05;;;1.98;;
39502;SDS011;26970;49.900;10.774;2022-09-09T07:15:50;5.32;;;2.28;;
39502;SDS011;26970;49.900;10.774;2022-09-09T07:18:16;5.60;;;2.53;;
39502;SDS011;26970;49.900;10.774;2022-09-09T07:20:42;4.82;;;1.77;;
39502;SDS011;26970;49.900;10.774;2022-09-09T07:23:07;6.22;;;1.90;;
39502;SDS011;26970;49.900;10.774;2022-09-09T07:25:33;5.40;;;1.98;;
39502;SDS011;26970;49.900;10.774;2022-09-09T07:27:58;5.22;;;2.00;;
39502;SDS011;26970;49.900;10.774;2022-09-09T07:30:24;7.63;;;2.00;;
39502;SDS011;26970;49.900;10.774;2022-09-09T07:32:53;7.47;;;1.95;;
39502;SDS011;26970;49.900;10.774;2022-09-09T07:35:18;5.15;;;2.00;;
39502;SDS011;26970;49.900;10.774;2022-09-09T07:37:45;3.15;;;1.40;;
39502;SDS011;26970;49.900;10.774;2022-09-09T07:40:10;2.63;;;1.35;;
39502;SDS011;26970;49.900;10.774;2022-09-09T07:42:36;6.50;;;2.00;;
39502;SDS011;26970;49.900;10.774;2022-09-09T07:45:02;5.45;;;1.73;;
39502;SDS011;26970;49.900;10.774;2022-09-09T07:47:29;4.72;;;2.03;;
39502;SDS011;26970;49.900;10.774;2022-09-09T07:49:54;5.35;;;1.85;;
39502;SDS011;26970;49.900;10.774;2022-09-09T07:52:20;4.50;;;1.40;;
39502;SDS011;26970;49.900;10.774;2022-09-09T07:54:46;4.85;;;1.75;;
39502;SDS011;26970;49.900;10.774;2022-09-09T07:57:12;4.90;;;1.70;;
39502;SDS011;26970;49.900;10.774;2022-09-09T07:59:37;5.18;;;1.70;;
39502;SDS011;26970;49.900;10.774;2022-09-09T08:02:03;5.70;;;1.40;;
39502;SDS011;26970;49.900;10.774;2022-09-09T08:04:30;3.78;;;1.60;;
39502;SDS011;26970;49.900;10.774;2022-09-09T08:06:56;3.95;;;1.60;;
39502;SDS011;26970;49.900;10.774;2022-09-09T08:09:24;4.68;;;1.30;;
39502;SDS011;26970;49.900;10.774;2022-09-09T08:11:54;2.75;;;1.30;;
39502;SDS011;26970;49.900;10.774;2022-09-09T08:14:21;3.67;;;1.42;;
39502;SDS011;26970;49.900;10.774;2022-09-09T08:16:48;8.88;;;1.65;;
39502;SDS011;26970;49.900;10.774;2022-09-09T08:19:15;3.97;;;1.55;;
39502;SDS011;26970;49.900;10.774;2022-09-09T08:21:42;5.18;;;1.48;;
39502;SDS011;26970;49.900;10.774;2022-09-09T08:24:09;2.97;;;1.25;;
39502;SDS011;26970;49.900;10.774;2022-09-09T08:26:38;4.55;;;1.27;;
39502;SDS011;26970;49.900;10.774;2022-09-09T08:29:06;5.10;;;1.65;;
39502;SDS011;26970;49.900;10.774;2022-09-09T08:31:34;6.45;;;1.40;;
39502;SDS011;26970;49.900;10.774;2022-09-09T08:34:02;5.15;;;1.75;;
39502;SDS011;26970;49.900;10.774;2022-09-09T08:36:29;4.00;;;1.55;;
39502;SDS011;26970;49.900;10.774;2022-09-09T08:38:58;3.50;;;1.40;;
39502;SDS011;26970;49.900;10.774;2022-09-09T08:44:07;5.78;;;1.60;;
39502;SDS011;26970;49.900;10.774;2022-09-09T08:51:43;3.80;;;1.40;;
39502;SDS011;26970;49.900;10.774;2022-09-09T08:54:08;3.58;;;1.42;;
39502;SDS011;26970;49.900;10.774;2022-09-09T08:56:35;2.67;;;1.23;;
39502;SDS011;26970;49.900;10.774;2022-09-09T08:59:03;4.07;;;1.58;;
39502;SDS011;26970;49.900;10.774;2022-09-09T09:01:39;4.97;;;1.42;;
39502;SDS011;26970;49.900;10.774;2022-09-09T09:04:22;2.42;;;1.05;;
39502;SDS011;26970;49.900;10.774;2022-09-09T09:07:05;3.90;;;1.52;;
39502;SDS011;26970;49.900;10.774;2022-09-09T09:12:38;3.70;;;1.20;;
39502;SDS011;26970;49.900;10.774;2022-09-09T09:15:14;3.67;;;1.23;;
39502;SDS011;26970;49.900;10.774;2022-09-09T09:17:48;4.20;;;1.30;;
39502;SDS011;26970;49.900;10.774;2022-09-09T09:20:14;3.75;;;1.20;;
39502;SDS011;26970;49.900;10.774;2022-09-09T09:25:37;7.20;;;1.65;;
39502;SDS011;26970;49.900;10.774;2022-09-09T09:28:18;3.45;;;1.40;;
39502;SDS011;26970;49.900;10.774;2022-09-09T09:31:05;3.55;;;1.40;;
39502;SDS011;26970;49.900;10.774;2022-09-09T09:33:38;6.13;;;1.58;;
39502;SDS011;26970;49.900;10.774;2022-09-09T09:36:06;6.28;;;1.40;;
39502;SDS011;26970;49.900;10.774;2022-09-09T09:38:33;5.00;;;1.30;;
39502;SDS011;26970;49.900;10.774;2022-09-09T09:41:00;4.45;;;1.40;;
39502;SDS011;26970;49.900;10.774;2022-09-09T09:43:37;8.90;;;1.75;;
39502;SDS011;26970;49.900;10.774;2022-09-09T09:46:17;6.25;;;1.40;;
39502;SDS011;26970;49.900;10.774;2022-09-09T09:48:57;3.55;;;1.33;;
39502;SDS011;26970;49.900;10.774;2022-09-09T09:56:38;4.85;;;1.52;;
39502;SDS011;26970;49.900;10.774;2022-09-09T09:59:05;3.28;;;1.20;;
39502;SDS011;26970;49.900;10.774;2022-09-09T10:01:44;4.80;;;1.48;;
39502;SDS011;26970;49.900;10.774;2022-09-09T10:04:17;4.97;;;1.77;;
39502;SDS011;26970;49.900;10.774;2022-09-09T10:06:48;4.85;;;1.20;;
39502;SDS011;26970;49.900;10.774;2022-09-09T10:09:32;6.35;;;1.45;;
39502;SDS011;26970;49.900;10.774;2022-09-09T10:12:17;4.50;;;1.30;;
39502;SDS011;26970;49.900;10.774;2022-09-09T10:15:02;7.82;;;1.80;;
39502;SDS011;26970;49.900;10.774;2022-09-09T10:17:38;4.75;;;1.50;;
39502;SDS011;26970;49.900;10.774;2022-09-09T10:20:21;4.57;;;1.20;;
39502;SDS011;26970;49.900;10.774;2022-09-09T10:23:00;6.93;;;2.13;;
39502;SDS011;26970;49.900;10.774;2022-09-09T10:28:52;3.70;;;1.30;;
39502;SDS011;26970;49.900;10.774;2022-09-09T10:36:49;6.07;;;1.98;;
39502;SDS011;26970;49.900;10.774;2022-09-09T10:39:33;6.13;;;1.30;;
39502;SDS011;26970;49.900;10.774;2022-09-09T10:42:15;3.97;;;1.40;;
39502;SDS011;26970;49.900;10.774;2022-09-09T10:49:56;5.72;;;1.70;;
39502;SDS011;26970;49.900;10.774;2022-09-09T10:52:47;4.72;;;1.60;;
39502;SDS011;26970;49.900;10.774;2022-09-09T10:55:28;4.07;;;1.30;;
39502;SDS011;26970;49.900;10.774;2022-09-09T10:58:04;5.13;;;1.50;;
39502;SDS011;26970;49.900;10.774;2022-09-09T11:03:22;4.28;;;1.25;;
39502;SDS011;26970;49.900;10.774;2022-09-09T11:05:51;5.22;;;1.33;;
39502;SDS011;26970;49.900;10.774;2022-09-09T11:08:22;4.82;;;1.05;;
39502;SDS011;26970;49.900;10.774;2022-09-09T11:11:03;6.68;;;1.55;;
39502;SDS011;26970;49.900;10.774;2022-09-09T11:16:42;3.70;;;1.50;;
39502;SDS011;26970;49.900;10.774;2022-09-09T11:19:17;7.15;;;1.30;;
39502;SDS011;26970;49.900;10.774;2022-09-09T11:22:06;3.45;;;1.40;;
39502;SDS011;26970;49.900;10.774;2022-09-09T11:27:54;5.30;;;1.30;;
39502;SDS011;26970;49.900;10.774;2022-09-09T11:30:45;3.67;;;1.20;;
